createdAt,value
2019-05-23T00:00:51.743Z,11.90
2019-05-23T00:03:23.507Z,11.80
2019-05-23T00:05:54.816Z,11.80
2019-05-23T00:08:29.650Z,11.80
2019-05-23T00:11:17.254Z,11.80
2019-05-23T00:13:53.825Z,11.80
2019-05-23T00:16:26.120Z,11.80
2019-05-23T00:18:58.443Z,11.80
2019-05-23T00:21:29.375Z,11.80
2019-05-23T00:24:00.807Z,11.80
2019-05-23T00:26:30.424Z,11.80
2019-05-23T00:29:10.090Z,11.80
2019-05-23T00:31:41.126Z,11.80
2019-05-23T00:34:13.328Z,11.80
2019-05-23T00:36:45.219Z,11.80
2019-05-23T00:39:16.968Z,11.80
2019-05-23T00:41:49.056Z,11.80
2019-05-23T00:44:18.881Z,11.80
2019-05-23T00:46:53.461Z,11.80
2019-05-23T00:49:27.046Z,11.80
2019-05-23T00:51:59.107Z,11.80
2019-05-23T00:54:29.603Z,11.70
2019-05-23T00:57:00.014Z,11.70
2019-05-23T00:59:32.065Z,11.70
2019-05-23T01:02:03.511Z,11.70
2019-05-23T01:04:34.570Z,11.70
2019-05-23T01:07:06.964Z,11.70
2019-05-23T01:09:41.240Z,11.70
2019-05-23T01:12:11.323Z,11.70
2019-05-23T01:14:43.733Z,11.70
2019-05-23T01:17:15.424Z,11.70
2019-05-23T01:19:46.218Z,11.70
2019-05-23T01:22:17.452Z,11.70
2019-05-23T01:24:50.070Z,11.70
2019-05-23T01:27:21.620Z,11.70
2019-05-23T01:29:51.806Z,11.60
2019-05-23T01:32:36.154Z,11.70
2019-05-23T01:35:11.302Z,11.60
2019-05-23T01:37:42.339Z,11.70
2019-05-23T01:40:14.103Z,11.60
2019-05-23T01:42:46.132Z,11.60
2019-05-23T01:45:17.931Z,11.60
2019-05-23T01:47:50.024Z,11.60
2019-05-23T01:50:23.048Z,11.60
2019-05-23T01:52:55.100Z,11.60
2019-05-23T01:55:27.010Z,11.60
2019-05-23T01:58:00.642Z,11.60
2019-05-23T02:00:36.204Z,11.50
2019-05-23T02:03:07.503Z,11.50
2019-05-23T02:05:38.026Z,11.50
2019-05-23T02:08:09.871Z,11.50
2019-05-23T02:10:41.427Z,11.50
2019-05-23T02:13:12.524Z,11.50
2019-05-23T02:15:43.523Z,11.50
2019-05-23T02:18:16.969Z,11.50
2019-05-23T02:20:49.197Z,11.50
2019-05-23T02:23:23.265Z,11.50
2019-05-23T02:25:55.944Z,11.50
2019-05-23T02:28:26.635Z,11.40
2019-05-23T02:30:58.057Z,11.40
2019-05-23T02:33:27.993Z,11.40
2019-05-23T02:38:34.847Z,11.40
2019-05-23T02:41:08.630Z,11.40
2019-05-23T02:43:39.282Z,11.40
2019-05-23T02:48:56.440Z,11.40
2019-05-23T02:51:30.414Z,11.40
2019-05-23T02:54:05.376Z,11.30
2019-05-23T02:56:40.689Z,11.30
2019-05-23T02:59:38.991Z,11.30
2019-05-23T03:02:22.777Z,11.20
2019-05-23T03:04:54.147Z,11.30
2019-05-23T03:07:28.944Z,11.30
2019-05-23T03:10:03.799Z,11.30
2019-05-23T03:12:33.793Z,11.30
2019-05-23T03:15:05.289Z,11.30
2019-05-23T03:17:39.913Z,11.30
2019-05-23T03:20:11.386Z,11.30
2019-05-23T03:22:49.948Z,11.30
2019-05-23T03:26:00.867Z,11.30
2019-05-23T03:28:36.461Z,11.30
2019-05-23T03:31:28.428Z,11.20
2019-05-23T03:33:46.548Z,11.20
2019-05-23T03:36:17.456Z,11.20
2019-05-23T03:38:49.932Z,11.20
2019-05-23T03:41:22.542Z,11.10
2019-05-23T03:43:55.580Z,11.20
2019-05-23T03:46:31.300Z,11.20
2019-05-23T03:49:03.399Z,11.10
2019-05-23T03:51:35.735Z,11.10
2019-05-23T03:54:10.373Z,11.10
2019-05-23T03:56:45.455Z,11.10
2019-05-23T03:59:18.892Z,11.10
2019-05-23T04:01:51.715Z,11.10
2019-05-23T04:04:24.274Z,11.00
2019-05-23T04:06:57.132Z,11.00
2019-05-23T04:09:29.611Z,11.00
2019-05-23T04:12:01.572Z,11.00
2019-05-23T04:14:35.530Z,11.00
2019-05-23T04:17:11.195Z,11.00
2019-05-23T04:19:42.394Z,11.00
2019-05-23T04:22:13.440Z,11.00
2019-05-23T04:24:44.894Z,11.00
2019-05-23T04:27:23.286Z,11.00
2019-05-23T04:29:54.795Z,11.00
2019-05-23T04:32:25.866Z,11.00
2019-05-23T04:35:00.381Z,11.00
2019-05-23T04:37:31.935Z,11.00
2019-05-23T04:40:06.648Z,11.10
2019-05-23T04:42:40.754Z,11.00
2019-05-23T04:45:11.021Z,11.00
2019-05-23T04:47:42.127Z,11.00
2019-05-23T04:50:15.796Z,11.10
2019-05-23T04:52:48.610Z,11.10
2019-05-23T04:55:23.719Z,11.00
2019-05-23T04:57:53.821Z,11.00
2019-05-23T05:00:29.283Z,11.10
2019-05-23T05:03:00.915Z,11.00
2019-05-23T05:05:33.207Z,11.00
2019-05-23T05:08:06.165Z,11.00
2019-05-23T05:10:38.701Z,11.00
2019-05-23T05:13:08.841Z,11.10
2019-05-23T05:15:39.922Z,11.10
2019-05-23T05:18:11.488Z,11.10
2019-05-23T05:20:44.196Z,11.10
2019-05-23T05:23:17.125Z,11.00
2019-05-23T05:26:07.669Z,11.10
2019-05-23T05:28:41.337Z,11.10
2019-05-23T05:31:16.896Z,11.00
2019-05-23T05:33:49.203Z,11.10
2019-05-23T05:36:24.080Z,11.10
2019-05-23T05:38:55.994Z,11.10
2019-05-23T05:41:30.285Z,11.10
2019-05-23T05:44:05.139Z,11.00
2019-05-23T05:46:38.773Z,11.10
2019-05-23T05:49:09.879Z,11.10
2019-05-23T05:51:41.839Z,11.10
2019-05-23T05:54:13.898Z,11.10
2019-05-23T05:56:45.037Z,11.10
2019-05-23T05:59:18.033Z,11.20
2019-05-23T06:04:21.117Z,11.20
2019-05-23T06:06:55.835Z,11.20
2019-05-23T06:09:32.246Z,11.20
2019-05-23T06:12:06.296Z,11.20
2019-05-23T06:14:39.415Z,11.20
2019-05-23T06:17:14.831Z,11.20
2019-05-23T06:19:45.243Z,11.20
2019-05-23T06:22:16.795Z,11.20
2019-05-23T06:24:53.219Z,11.20
2019-05-23T06:27:21.167Z,11.20
2019-05-23T06:29:54.915Z,11.20
2019-05-23T06:32:26.587Z,11.10
2019-05-23T06:34:58.475Z,11.10
2019-05-23T06:37:34.007Z,11.20
2019-05-23T06:40:02.009Z,11.10
2019-05-23T06:42:33.216Z,11.10
2019-05-23T06:45:07.754Z,11.10
2019-05-23T06:47:40.669Z,11.10
2019-05-23T06:50:15.143Z,11.10
2019-05-23T06:52:50.415Z,11.10
2019-05-23T06:55:23.699Z,11.10
2019-05-23T06:57:56.852Z,11.10
2019-05-23T07:00:29.938Z,11.10
2019-05-23T07:03:02.650Z,11.10
2019-05-23T07:05:36.876Z,11.10
2019-05-23T07:08:09.583Z,11.10
2019-05-23T07:10:42.692Z,11.10
2019-05-23T07:13:15.405Z,11.20
2019-05-23T07:15:46.445Z,11.20
2019-05-23T07:18:20.677Z,11.20
2019-05-23T07:20:53.358Z,11.10
2019-05-23T07:23:27.623Z,11.10
2019-05-23T07:25:58.451Z,11.20
2019-05-23T07:28:29.630Z,11.10
2019-05-23T07:31:00.585Z,11.10
2019-05-23T07:33:33.182Z,11.20
2019-05-23T07:36:04.463Z,11.20
2019-05-23T07:38:34.692Z,11.10
2019-05-23T07:41:09.933Z,11.10
2019-05-23T07:43:42.204Z,11.10
2019-05-23T07:46:15.705Z,11.10
2019-05-23T07:48:51.509Z,11.10
2019-05-23T07:51:23.901Z,11.10
2019-05-23T07:54:03.230Z,11.10
2019-05-23T07:56:37.023Z,11.00
2019-05-23T07:59:08.734Z,11.00
2019-05-23T08:01:40.944Z,11.00
2019-05-23T08:04:21.235Z,11.10
2019-05-23T08:06:49.028Z,11.10
2019-05-23T08:09:20.096Z,11.10
2019-05-23T08:11:51.269Z,11.10
2019-05-23T08:14:21.560Z,11.10
2019-05-23T08:16:53.839Z,11.10
2019-05-23T08:19:27.915Z,11.10
2019-05-23T08:22:00.387Z,11.10
2019-05-23T08:24:33.192Z,11.10
2019-05-23T08:27:06.633Z,11.10
2019-05-23T08:29:40.020Z,11.20
2019-05-23T08:32:10.976Z,11.20
2019-05-23T08:34:43.050Z,11.20
2019-05-23T08:37:13.379Z,11.30
2019-05-23T08:39:45.407Z,11.20
2019-05-23T08:42:17.820Z,11.30
2019-05-23T08:44:50.322Z,11.30
2019-05-23T08:47:22.145Z,11.30
2019-05-23T08:49:53.578Z,11.30
2019-05-23T08:52:24.944Z,11.30
2019-05-23T08:55:03.482Z,11.30
2019-05-23T08:57:33.752Z,11.30
2019-05-23T09:00:07.107Z,11.30
2019-05-23T09:02:38.520Z,11.30
2019-05-23T09:05:10.893Z,11.30
2019-05-23T09:07:43.118Z,11.30
2019-05-23T09:10:16.529Z,11.30
2019-05-23T09:12:47.899Z,11.30
2019-05-23T09:15:20.414Z,11.30
2019-05-23T09:17:53.890Z,11.40
2019-05-23T09:20:28.677Z,11.40
2019-05-23T09:23:01.261Z,11.40
2019-05-23T09:25:34.430Z,11.30
2019-05-23T09:28:09.857Z,11.30
2019-05-23T09:30:47.669Z,11.30
2019-05-23T09:33:21.531Z,11.30
2019-05-23T09:35:53.189Z,11.30
2019-05-23T09:38:26.836Z,11.30
2019-05-23T09:40:56.816Z,11.30
2019-05-23T09:43:28.015Z,11.30
2019-05-23T09:48:30.283Z,11.30
2019-05-23T09:51:01.474Z,11.30
2019-05-23T09:53:31.497Z,11.30
2019-05-23T09:56:06.430Z,11.40
2019-05-23T09:58:39.347Z,11.40
2019-05-23T10:01:10.710Z,11.40
2019-05-23T10:03:42.004Z,11.40
2019-05-23T10:06:14.340Z,11.40
2019-05-23T10:08:45.545Z,11.40
2019-05-23T10:11:18.622Z,11.40
2019-05-23T10:13:51.364Z,11.50
2019-05-23T10:16:24.176Z,11.50
2019-05-23T10:18:58.865Z,11.50
2019-05-23T10:21:30.019Z,11.60
2019-05-23T10:23:59.826Z,11.50
2019-05-23T10:29:22.811Z,11.60
2019-05-23T10:31:55.270Z,11.60
2019-05-23T10:34:30.811Z,11.60
2019-05-23T10:37:01.906Z,11.70
2019-05-23T10:39:35.764Z,11.70
2019-05-23T10:42:08.161Z,11.60
2019-05-23T10:44:44.995Z,11.60
2019-05-23T10:47:14.564Z,11.60
2019-05-23T10:49:44.069Z,11.70
2019-05-23T10:52:15.397Z,11.60
2019-05-23T10:54:46.650Z,11.70
2019-05-23T10:57:20.733Z,11.70
2019-05-23T10:59:53.637Z,11.70
2019-05-23T11:02:27.079Z,11.60
2019-05-23T11:04:58.371Z,11.60
2019-05-23T11:07:30.719Z,11.50
2019-05-23T11:10:03.368Z,11.60
2019-05-23T11:15:13.040Z,11.60
2019-05-23T11:17:45.385Z,11.50
2019-05-23T11:20:16.848Z,11.50
2019-05-23T11:22:48.571Z,11.50
2019-05-23T11:25:20.370Z,11.50
2019-05-23T11:30:30.120Z,11.40
2019-05-23T11:33:03.901Z,11.40
2019-05-23T11:35:35.301Z,11.40
2019-05-23T11:38:07.362Z,11.40
2019-05-23T11:40:38.538Z,11.40
2019-05-23T11:43:10.006Z,11.30
2019-05-23T11:45:46.122Z,11.30
2019-05-23T11:48:16.115Z,11.30
2019-05-23T11:54:07.591Z,11.30
2019-05-23T11:56:32.525Z,11.30
2019-05-23T11:59:05.095Z,11.20
2019-05-23T12:01:43.282Z,11.30
2019-05-23T12:04:20.109Z,11.30
2019-05-23T12:06:55.766Z,11.30
2019-05-23T12:09:25.228Z,11.30
2019-05-23T12:11:58.888Z,11.30
2019-05-23T12:14:31.308Z,11.30
2019-05-23T12:17:01.658Z,11.40
2019-05-23T12:19:31.676Z,11.40
2019-05-23T12:22:06.232Z,11.40
2019-05-23T12:24:39.602Z,11.50
2019-05-23T12:27:09.651Z,11.40
2019-05-23T12:29:41.984Z,11.50
2019-05-23T12:32:13.437Z,11.50
2019-05-23T12:35:08.116Z,11.50
2019-05-23T12:37:20.444Z,11.50
2019-05-23T12:39:50.921Z,11.50
2019-05-23T12:42:23.043Z,11.50
2019-05-23T12:44:54.168Z,11.60
2019-05-23T12:47:26.752Z,11.70
2019-05-23T12:49:59.500Z,11.70
2019-05-23T12:52:29.472Z,11.80
2019-05-23T12:55:00.190Z,11.80
2019-05-23T12:57:31.528Z,11.80
2019-05-23T13:00:03.357Z,11.80
2019-05-23T13:02:34.704Z,11.80
2019-05-23T13:05:07.050Z,11.80
2019-05-23T13:07:38.102Z,11.80
2019-05-23T13:10:10.247Z,11.90
2019-05-23T13:12:41.421Z,11.90
2019-05-23T13:15:14.581Z,11.90
2019-05-23T13:17:48.032Z,11.90
2019-05-23T13:20:24.368Z,12.00
2019-05-23T13:22:56.920Z,12.00
2019-05-23T13:25:27.804Z,12.00
2019-05-23T13:28:01.787Z,12.10
2019-05-23T13:30:32.312Z,12.10
2019-05-23T13:33:04.644Z,12.10
2019-05-23T13:35:38.500Z,12.00
2019-05-23T13:38:29.054Z,12.10
2019-05-23T13:41:06.059Z,12.10
2019-05-23T13:43:38.852Z,12.20
2019-05-23T13:46:09.900Z,12.20
2019-05-23T13:48:40.052Z,12.20
2019-05-23T13:51:11.311Z,12.20
2019-05-23T13:53:41.095Z,12.20
2019-05-23T13:56:14.101Z,12.20
2019-05-23T13:58:45.231Z,12.30
2019-05-23T14:01:16.775Z,12.30
2019-05-23T14:03:47.881Z,12.30
2019-05-23T14:06:19.239Z,12.30
2019-05-23T14:08:49.396Z,12.40
2019-05-23T14:11:20.292Z,12.40
2019-05-23T14:13:59.737Z,12.40
2019-05-23T14:16:23.579Z,12.50
2019-05-23T14:18:55.553Z,12.50
2019-05-23T14:21:30.580Z,12.50
2019-05-23T14:24:04.340Z,12.60
2019-05-23T14:26:35.922Z,12.70
2019-05-23T14:29:07.076Z,12.70
2019-05-23T14:31:44.526Z,12.70
2019-05-23T14:34:18.797Z,12.70
2019-05-23T14:36:56.521Z,12.70
2019-05-23T14:39:30.696Z,12.70
2019-05-23T14:42:09.921Z,12.80
2019-05-23T14:44:41.147Z,12.80
2019-05-23T14:47:19.975Z,12.90
2019-05-23T14:52:35.439Z,12.80
2019-05-23T14:55:10.751Z,12.80
2019-05-23T14:57:43.448Z,12.80
2019-05-23T15:00:16.301Z,12.80
2019-05-23T15:02:48.933Z,12.90
2019-05-23T15:05:18.887Z,12.90
2019-05-23T15:07:49.806Z,12.90
2019-05-23T15:10:23.897Z,12.90
2019-05-23T15:12:53.871Z,13.00
2019-05-23T15:15:24.149Z,13.00
2019-05-23T15:17:55.152Z,13.00
2019-05-23T15:20:24.587Z,13.10
2019-05-23T15:22:59.717Z,13.10
2019-05-23T15:25:29.010Z,13.10
2019-05-23T15:28:01.890Z,13.10
2019-05-23T15:30:40.113Z,13.20
2019-05-23T15:33:14.886Z,13.20
2019-05-23T15:35:48.756Z,13.20
2019-05-23T15:38:19.682Z,13.20
2019-05-23T15:40:52.036Z,13.20
2019-05-23T15:43:24.333Z,13.20
2019-05-23T15:45:57.262Z,13.30
2019-05-23T15:48:32.554Z,13.30
2019-05-23T15:51:03.136Z,13.30
2019-05-23T15:53:35.044Z,13.30
2019-05-23T15:56:28.061Z,13.30
2019-05-23T15:59:01.067Z,13.30
2019-05-23T16:01:36.256Z,13.30
2019-05-23T16:04:08.109Z,13.30
2019-05-23T16:06:39.834Z,13.30
2019-05-23T16:09:27.689Z,13.30
2019-05-23T16:11:43.529Z,13.30
2019-05-23T16:14:15.826Z,13.40
2019-05-23T16:16:47.637Z,13.50
2019-05-23T16:19:20.262Z,13.40
2019-05-23T16:22:10.504Z,13.30
2019-05-23T16:24:41.771Z,13.30
2019-05-23T16:27:14.146Z,13.30
2019-05-23T16:29:44.897Z,13.20
2019-05-23T16:32:16.815Z,13.20
2019-05-23T16:34:46.935Z,13.20
2019-05-23T16:37:18.218Z,13.20
2019-05-23T16:39:49.684Z,13.30
2019-05-23T16:42:20.170Z,13.30
2019-05-23T16:44:53.520Z,13.30
2019-05-23T16:47:23.493Z,13.30
2019-05-23T16:49:54.603Z,13.30
2019-05-23T16:52:26.910Z,13.40
2019-05-23T16:55:00.281Z,13.50
2019-05-23T16:57:38.074Z,13.50
2019-05-23T17:00:18.443Z,13.50
2019-05-23T17:02:58.801Z,13.50
2019-05-23T17:05:34.024Z,13.50
2019-05-23T17:08:07.587Z,13.50
2019-05-23T17:10:46.388Z,13.50
2019-05-23T17:13:21.784Z,13.50
2019-05-23T17:15:56.146Z,13.40
2019-05-23T17:18:27.672Z,13.30
2019-05-23T17:21:09.321Z,13.30
2019-05-23T17:23:48.585Z,13.20
2019-05-23T17:26:21.704Z,13.20
2019-05-23T17:28:59.265Z,13.20
2019-05-23T17:31:32.299Z,13.20
2019-05-23T17:34:03.741Z,13.10
2019-05-23T17:36:34.943Z,13.10
2019-05-23T17:39:09.203Z,13.00
2019-05-23T17:41:40.534Z,13.00
2019-05-23T17:44:10.716Z,13.00
2019-05-23T17:46:43.635Z,13.00
2019-05-23T17:49:16.880Z,12.90
2019-05-23T17:51:48.738Z,12.90
2019-05-23T17:54:21.287Z,13.00
2019-05-23T17:56:53.927Z,12.90
2019-05-23T17:59:25.046Z,13.00
2019-05-23T18:01:55.747Z,12.90
2019-05-23T18:04:27.231Z,12.90
2019-05-23T18:06:59.491Z,12.90
2019-05-23T18:09:30.085Z,12.80
2019-05-23T18:12:03.254Z,12.80
2019-05-23T18:14:36.263Z,12.80
2019-05-23T18:17:08.768Z,12.70
2019-05-23T18:19:40.251Z,12.70
2019-05-23T18:22:13.056Z,12.70
2019-05-23T18:24:44.840Z,12.70
2019-05-23T18:27:16.304Z,12.60
2019-05-23T18:29:49.018Z,12.60
2019-05-23T18:34:52.513Z,12.60
2019-05-23T18:37:24.036Z,12.60
2019-05-23T18:39:54.945Z,12.60
2019-05-23T18:42:26.139Z,12.60
2019-05-23T18:45:00.560Z,12.60
2019-05-23T18:47:35.954Z,12.60
2019-05-23T18:50:08.648Z,12.50
2019-05-23T18:52:39.539Z,12.50
2019-05-23T18:55:14.478Z,12.40
2019-05-23T18:57:46.826Z,12.40
2019-05-23T19:00:17.040Z,12.40
2019-05-23T19:02:46.409Z,12.40
2019-05-23T19:05:17.343Z,12.40
2019-05-23T19:07:48.555Z,12.40
2019-05-23T19:10:20.255Z,12.40
2019-05-23T19:12:51.489Z,12.40
2019-05-23T19:15:22.690Z,12.40
2019-05-23T19:17:55.161Z,12.40
2019-05-23T19:20:26.535Z,12.40
2019-05-23T19:22:58.667Z,12.30
2019-05-23T19:25:31.783Z,12.30
2019-05-23T19:28:06.149Z,12.30
2019-05-23T19:30:37.820Z,12.20
2019-05-23T19:33:10.403Z,12.20
2019-05-23T19:35:47.377Z,12.20
2019-05-23T19:38:18.159Z,12.20
2019-05-23T19:40:49.645Z,12.20
2019-05-23T19:43:20.749Z,12.20
2019-05-23T19:45:55.842Z,12.20
2019-05-23T19:48:27.788Z,12.20
2019-05-23T19:50:58.589Z,12.20
2019-05-23T19:53:31.200Z,12.20
2019-05-23T19:56:03.242Z,12.20
2019-05-23T19:58:35.550Z,12.20
2019-05-23T20:01:07.858Z,12.20
2019-05-23T20:03:41.909Z,12.10
2019-05-23T20:06:14.340Z,12.10
2019-05-23T20:08:46.592Z,12.10
2019-05-23T20:11:17.799Z,12.10
2019-05-23T20:13:50.989Z,12.10
2019-05-23T20:16:23.957Z,12.10
2019-05-23T20:18:57.285Z,12.10
2019-05-23T20:21:30.234Z,12.10
2019-05-23T20:24:04.901Z,12.10
2019-05-23T20:26:35.363Z,12.10
2019-05-23T20:29:08.477Z,12.10
2019-05-23T20:31:38.617Z,12.10
2019-05-23T20:34:09.831Z,12.10
2019-05-23T20:36:40.788Z,12.10
2019-05-23T20:39:11.738Z,12.10
2019-05-23T20:41:43.516Z,12.10
2019-05-23T20:44:14.877Z,12.10
2019-05-23T20:46:44.745Z,12.10
2019-05-23T20:49:17.354Z,12.10
2019-05-23T20:51:48.342Z,12.00
2019-05-23T20:54:20.928Z,12.10
2019-05-23T20:56:50.981Z,12.20
2019-05-23T20:59:22.354Z,12.20
2019-05-23T21:01:53.577Z,12.20
2019-05-23T21:04:29.235Z,12.20
2019-05-23T21:07:02.255Z,12.10
2019-05-23T21:09:38.695Z,12.10
2019-05-23T21:12:09.925Z,12.00
2019-05-23T21:14:42.450Z,12.00
2019-05-23T21:17:13.944Z,11.90
2019-05-23T21:19:46.573Z,11.90
2019-05-23T21:22:16.343Z,11.80
2019-05-23T21:24:47.440Z,11.80
2019-05-23T21:27:22.831Z,11.80
2019-05-23T21:29:54.701Z,11.80
2019-05-23T21:32:25.844Z,11.80
2019-05-23T21:34:55.686Z,11.80
2019-05-23T21:37:30.364Z,11.90
2019-05-23T21:40:00.646Z,11.90
2019-05-23T21:42:46.637Z,11.80
2019-05-23T21:45:07.178Z,11.80
2019-05-23T21:47:39.825Z,11.80
2019-05-23T21:50:12.758Z,11.80
2019-05-23T21:52:42.791Z,11.80
2019-05-23T21:55:33.619Z,11.80
2019-05-23T21:58:08.289Z,11.70
2019-05-23T22:01:06.976Z,11.80
2019-05-23T22:03:44.821Z,11.80
2019-05-23T22:06:16.845Z,11.80
2019-05-23T22:08:49.609Z,11.70
2019-05-23T22:11:30.174Z,11.80
2019-05-23T22:14:02.466Z,11.70
2019-05-23T22:16:34.063Z,11.70
2019-05-23T22:19:06.162Z,11.70
2019-05-23T22:21:40.344Z,11.70
2019-05-23T22:24:12.068Z,11.70
2019-05-23T22:26:44.631Z,11.60
2019-05-23T22:29:19.542Z,11.60
2019-05-23T22:31:50.813Z,11.60
2019-05-23T22:34:38.304Z,11.50
2019-05-23T22:37:14.197Z,11.50
2019-05-23T22:39:44.260Z,11.40
2019-05-23T22:42:19.767Z,11.40
2019-05-23T22:44:52.308Z,11.40
2019-05-23T22:47:23.417Z,11.40
2019-05-23T22:49:54.822Z,11.40
2019-05-23T22:52:25.753Z,11.40
2019-05-23T22:54:57.249Z,11.40
2019-05-23T22:57:28.462Z,11.40
2019-05-23T22:59:59.591Z,11.40
2019-05-23T23:02:31.769Z,11.40
2019-05-23T23:05:05.037Z,11.40
2019-05-23T23:07:36.449Z,11.40
2019-05-23T23:10:09.625Z,11.40
2019-05-23T23:12:44.122Z,11.40
2019-05-23T23:15:15.224Z,11.40
2019-05-23T23:17:46.320Z,11.40
2019-05-23T23:20:19.258Z,11.40
2019-05-23T23:22:50.745Z,11.40
2019-05-23T23:25:23.314Z,11.30
2019-05-23T23:27:56.385Z,11.30
2019-05-23T23:30:29.088Z,11.30
2019-05-23T23:33:02.371Z,11.20
2019-05-23T23:35:32.333Z,11.20
2019-05-23T23:38:03.690Z,11.10
2019-05-23T23:40:36.857Z,11.10
2019-05-23T23:43:08.001Z,11.00
2019-05-23T23:45:55.991Z,11.00
2019-05-23T23:48:46.207Z,10.90
2019-05-23T23:51:35.354Z,10.90
2019-05-23T23:54:24.107Z,10.80
2019-05-23T23:57:11.858Z,10.80
2019-05-23T23:59:44.435Z,10.70
